Weather at Willow Creek Airport

Public forecast

Using degrees Fahrenheit for public forecast. Weather courtesy of forecast.io.

Closest aviation weather report (METAR) to Willow Creek Airport

Closest report is Lawrence J Timmerman Airport, 8.0 nm (14.8 km) SE. Retrieved 2021/06/13 17:45 UTC (26 minutes ago):

KMWC 131745Z 30009G16KT 10SM CLR 28/06 A3000

Closest aviation forecast (TAF) to Willow Creek Airport

Closest forecast is Waukesha County Airport, 10.5 nm (19.5 km) SSW. Retrieved 2021/06/13 18:24 UTC (0 seconds ago):

TAF KUES 131723Z 1318/1418 32008KT P6SM SKC FM140000 28005KT P6SM SCT100 SCT250 FM140700 02006G15KT P6SM SCT080 BKN200 FM141100 36010G18KT P6SM FEW250